地図

経路データ

SID SEASON NUMBER BASIN SUBBASIN NAME ISO_TIME NATURE LAT LON WMO_WIND WMO_PRES WMO_AGENCY TRACK_TYPE DIST2LAND LANDFALL IFLAG USA_AGENCY USA_ATCF_ID USA_LAT USA_LON USA_RECORD USA_STATUS USA_WIND USA_PRES USA_SSHS USA_R34_NE USA_R34_SE USA_R34_SW USA_R34_NW USA_R50_NE USA_R50_SE USA_R50_SW USA_R50_NW USA_R64_NE USA_R64_SE USA_R64_SW USA_R64_NW USA_POCI USA_ROCI USA_RMW USA_EYE TOKYO_LAT TOKYO_LON TOKYO_GRADE TOKYO_WIND TOKYO_PRES TOKYO_R50_DIR TOKYO_R50_LONG TOKYO_R50_SHORT TOKYO_R30_DIR TOKYO_R30_LONG TOKYO_R30_SHORT TOKYO_LAND CMA_LAT CMA_LON CMA_CAT CMA_WIND CMA_PRES HKO_LAT HKO_LON HKO_CAT HKO_WIND HKO_PRES NEWDELHI_LAT NEWDELHI_LON NEWDELHI_GRADE NEWDELHI_WIND NEWDELHI_PRES NEWDELHI_CI NEWDELHI_DP NEWDELHI_POCI REUNION_LAT REUNION_LON REUNION_TYPE REUNION_WIND REUNION_PRES REUNION_TNUM REUNION_CI REUNION_RMW REUNION_R34_NE REUNION_R34_SE REUNION_R34_SW REUNION_R34_NW REUNION_R50_NE REUNION_R50_SE REUNION_R50_SW REUNION_R50_NW REUNION_R64_NE REUNION_R64_SE REUNION_R64_SW REUNION_R64_NW BOM_LAT BOM_LON BOM_TYPE BOM_WIND BOM_PRES BOM_TNUM BOM_CI BOM_RMW BOM_R34_NE BOM_R34_SE BOM_R34_SW BOM_R34_NW BOM_R50_NE BOM_R50_SE BOM_R50_SW BOM_R50_NW BOM_R64_NE BOM_R64_SE BOM_R64_SW BOM_R64_NW BOM_ROCI BOM_POCI BOM_EYE BOM_POS_METHOD BOM_PRES_METHOD NADI_LAT NADI_LON NADI_CAT NADI_WIND NADI_PRES WELLINGTON_LAT WELLINGTON_LON WELLINGTON_WIND WELLINGTON_PRES DS824_LAT DS824_LON DS824_STAGE DS824_WIND DS824_PRES TD9636_LAT TD9636_LON TD9636_STAGE TD9636_WIND TD9636_PRES TD9635_LAT TD9635_LON TD9635_WIND TD9635_PRES TD9635_ROCI NEUMANN_LAT NEUMANN_LON NEUMANN_CLASS NEUMANN_WIND NEUMANN_PRES MLC_LAT MLC_LON MLC_CLASS MLC_WIND MLC_PRES USA_GUST BOM_GUST BOM_GUST_PER REUNION_GUST REUNION_GUST_PER USA_SEAHGT USA_SEARAD_NE USA_SEARAD_SE USA_SEARAD_SW USA_SEARAD_NW STORM_SPEED STORM_DIR
1982188N09262 1982 44 EP MM DANIEL 1982-07-07 00:00:00 TS 9.20000 -98.0000 25 hurdat_epa main 732 724 O_________O___ hurdat_epa EP041982 9.20000 -98.0000 TD 25 -1 9.20000 -98.0000 1 25 8 291
1982188N09262 1982 44 EP MM DANIEL 1982-07-07 03:00:00 TS 9.35130 -98.3965 main 721 720 P_________P___ EP041982 9.35010 -98.3949 TD 25 -1 9.35489 -98.4014 1 26 9 291
1982188N09262 1982 44 EP MM DANIEL 1982-07-07 06:00:00 TS 9.50191 -98.8031 25 hurdat_epa main 723 716 O_________P___ hurdat_epa EP041982 9.50000 -98.8000 TD 25 -1 9.50766 -98.8123 1 27 9 290
1982188N09262 1982 44 EP MM DANIEL 1982-07-07 09:00:00 TS 9.65158 -99.2312 main 718 718 P_________P___ EP041982 9.64991 -99.2276 TD 27 -1 9.65662 -99.2421 1 28 9 289
1982188N09262 1982 44 EP MM DANIEL 1982-07-07 12:00:00 TS 9.80000 -99.7000 30 hurdat_epa main 724 719 O_________O___ hurdat_epa EP041982 9.80000 -99.7000 TD 30 -1 9.80000 -99.7000 1 30 10 287
1982188N09262 1982 44 EP MM DANIEL 1982-07-07 15:00:00 TS 9.95224 -100.235 main 720 720 P_________P___ EP041982 9.95755 -100.250 TD 32 -1 9.93630 -100.191 1 32 11 285
1982188N09262 1982 44 EP MM DANIEL 1982-07-07 18:00:00 TS 10.0913 -100.775 35 hurdat_epa main 733 730 O_________P___ hurdat_epa EP041982 10.1000 -100.800 TS 35 0 10.0651 -100.700 1 35 10 284
1982188N09262 1982 44 EP MM DANIEL 1982-07-07 21:00:00 TS 10.2021 -101.257 main 742 741 P_________P___ EP041982 10.2074 -101.273 TS 37 0 10.1863 -101.209 1 37 9 283
1982188N09262 1982 44 EP MM DANIEL 1982-07-08 00:00:00 TS 10.3000 -101.700 40 hurdat_epa main 748 744 O_________O___ hurdat_epa EP041982 10.3000 -101.700 TS 40 0 10.3000 -101.700 2 40 9 283
1982188N09262 1982 44 EP MM DANIEL 1982-07-08 03:00:00 TS 10.4016 -102.105 main 751 748 P_________P___ EP041982 10.3999 -102.100 TS 42 0 10.4066 -102.118 2 41 8 284
1982188N09262 1982 44 EP MM DANIEL 1982-07-08 06:00:00 TS 10.5017 -102.505 45 hurdat_epa main 757 755 O_________P___ hurdat_epa EP041982 10.5000 -102.500 TS 45 0 10.5066 -102.520 2 42 8 284
1982188N09262 1982 44 EP MM DANIEL 1982-07-08 09:00:00 TS 10.6008 -102.930 main 765 765 P_________P___ EP041982 10.5999 -102.928 TS 45 0 10.6034 -102.937 2 43 9 283
1982188N09262 1982 44 EP MM DANIEL 1982-07-08 12:00:00 TS 10.7000 -103.400 45 hurdat_epa main 779 779 O_________O___ hurdat_epa EP041982 10.7000 -103.400 TS 45 0 10.7000 -103.400 2 45 10 281
1982188N09262 1982 44 EP MM DANIEL 1982-07-08 15:00:00 TS 10.7949 -103.928 main 787 787 P_________P___ EP041982 10.7999 -103.920 TS 47 0 10.7798 -103.950 2 46 11 280
1982188N09262 1982 44 EP MM DANIEL 1982-07-08 18:00:00 TS 10.8906 -104.512 50 hurdat_epa main 804 804 O_________P___ hurdat_epa EP041982 10.9000 -104.500 TS 50 0 10.8626 -104.548 2 47 12 279
1982188N09262 1982 44 EP MM DANIEL 1982-07-08 21:00:00 TS 10.9854 -105.150 main 826 826 P_________P___ EP041982 10.9925 -105.143 TS 50 0 10.9641 -105.172 2 48 13 279
1982188N09262 1982 44 EP MM DANIEL 1982-07-09 00:00:00 TS 11.1000 -105.800 50 hurdat_epa main 842 842 O_________O___ hurdat_epa EP041982 11.1000 -105.800 TS 50 0 11.1000 -105.800 2 50 13 281
1982188N09262 1982 44 EP MM DANIEL 1982-07-09 03:00:00 TS 11.2279 -106.409 main 853 847 P_________P___ EP041982 11.2198 -106.408 TS 52 0 11.2519 -106.411 2 52 12 285
1982188N09262 1982 44 EP MM DANIEL 1982-07-09 06:00:00 TS 11.4110 -107.005 55 hurdat_epa main 859 853 O_________P___ hurdat_epa EP041982 11.4000 -107.000 TS 55 0 11.4441 -107.021 2 55 13 291
1982188N09262 1982 44 EP MM DANIEL 1982-07-09 09:00:00 TS 11.6691 -107.611 main 860 860 P_________P___ EP041982 11.6624 -107.608 TS 57 0 11.6892 -107.620 2 57 13 297
1982188N09262 1982 44 EP MM DANIEL 1982-07-09 12:00:00 TS 12.0000 -108.200 60 hurdat_epa main 866 861 O_________O___ hurdat_epa EP041982 12.0000 -108.200 TS 60 0 12.0000 -108.200 2 60 13 303
1982188N09262 1982 44 EP MM DANIEL 1982-07-09 15:00:00 TS 12.4073 -108.757 main 871 856 P_________P___ EP041982 12.4073 -108.757 TS 62 0 12.4072 -108.755 2 62 13 307
1982188N09262 1982 44 EP MM DANIEL 1982-07-09 18:00:00 TS 12.8000 -109.300 65 hurdat_epa main 862 859 O_________O___ hurdat_epa EP041982 12.8000 -109.300 HU 65 1 12.8000 -109.300 3 65 13 303
1982188N09262 1982 44 EP MM DANIEL 1982-07-09 21:00:00 TS 13.0941 -109.856 main 873 871 P_________P___ EP041982 13.0949 -109.858 HU 67 1 13.0915 -109.853 3 67 12 295
1982188N09262 1982 44 EP MM DANIEL 1982-07-10 00:00:00 TS 13.3000 -110.400 70 hurdat_epa main 890 890 O_________O___ hurdat_epa EP041982 13.3000 -110.400 HU 70 1 13.3000 -110.400 4 70 11 288
1982188N09262 1982 44 EP MM DANIEL 1982-07-10 03:00:00 TS 13.4333 -110.916 main 919 918 P_________P___ EP041982 13.4298 -110.900 HU 72 1 13.4437 -110.963 4 73 10 282
1982188N09262 1982 44 EP MM DANIEL 1982-07-10 06:00:00 TS 13.5054 -111.429 75 hurdat_epa main 949 949 O_________P___ hurdat_epa EP041982 13.5000 -111.400 HU 75 1 13.5217 -111.515 4 77 10 277
1982188N09262 1982 44 EP MM DANIEL 1982-07-10 09:00:00 TS 13.5535 -111.983 main 987 987 P_________P___ EP041982 13.5501 -111.965 HU 80 1 13.5639 -112.035 4 81 10 275
1982188N09262 1982 44 EP MM DANIEL 1982-07-10 12:00:00 TS 13.6000 -112.500 85 hurdat_epa main 1026 1026 O_________O___ hurdat_epa EP041982 13.6000 -112.500 HU 85 2 13.6000 -112.500 4 85 9 278
1982188N09262 1982 44 EP MM DANIEL 1982-07-10 15:00:00 TS 13.6885 -112.931 main 1051 1051 P_________P___ EP041982 13.6999 -112.945 HU 87 2 13.6542 -112.891 4 87 8 283
1982188N09262 1982 44 EP MM DANIEL 1982-07-10 18:00:00 TS 13.7780 -113.281 90 hurdat_epa main 1075 1075 O_________P___ hurdat_epa EP041982 13.8000 -113.300 HU 90 2 13.7119 -113.225 4 90 6 282
1982188N09262 1982 44 EP MM DANIEL 1982-07-10 21:00:00 TS 13.8233 -113.560 main 1086 1079 P_________P___ EP041982 13.8349 -113.573 HU 92 2 13.7887 -113.522 4 92 5 284
1982188N09262 1982 44 EP MM DANIEL 1982-07-11 00:00:00 TS 13.9000 -113.800 95 hurdat_epa main 1083 1070 O_________O___ hurdat_epa EP041982 13.9000 -113.800 HU 95 2 13.9000 -113.800 4 95 5 298
1982188N09262 1982 44 EP MM DANIEL 1982-07-11 03:00:00 TS 14.0740 -114.046 main 1070 1063 P_________P___ EP041982 14.0775 -114.043 HU 97 3 14.0636 -114.057 4 96 6 309
1982188N09262 1982 44 EP MM DANIEL 1982-07-11 06:00:00 TS 14.2904 -114.301 100 hurdat_epa main 1063 1052 O_________P___ hurdat_epa EP041982 14.3000 -114.300 HU 100 3 14.2618 -114.305 4 97 7 310
1982188N09262 1982 44 EP MM DANIEL 1982-07-11 09:00:00 TS 14.4947 -114.572 main 1057 1047 P_________P___ EP041982 14.4999 -114.570 HU 100 3 14.4791 -114.576 4 98 7 305
1982188N09262 1982 44 EP MM DANIEL 1982-07-11 12:00:00 TS 14.7000 -114.900 100 hurdat_epa main 1052 1047 O_________O___ hurdat_epa EP041982 14.7000 -114.900 HU 100 3 14.7000 -114.900 4 100 8 300
1982188N09262 1982 44 EP MM DANIEL 1982-07-11 15:00:00 TS 14.9031 -115.317 main 1054 1050 P_________P___ EP041982 14.9000 -115.320 HU 100 3 14.9123 -115.309 4 100 10 295
1982188N09262 1982 44 EP MM DANIEL 1982-07-11 18:00:00 TS 15.1056 -115.794 100 hurdat_epa main 1064 1060 O_________P___ hurdat_epa EP041982 15.1000 -115.800 HU 100 3 15.1225 -115.775 4 100 10 294
1982188N09262 1982 44 EP MM DANIEL 1982-07-11 21:00:00 TS 15.3166 -116.289 main 1077 1074 P_________P___ EP041982 15.3149 -116.292 HU 100 3 15.3215 -116.278 4 100 10 292
1982188N09262 1982 44 EP MM DANIEL 1982-07-12 00:00:00 TS 15.5000 -116.800 100 hurdat_epa main 1092 1092 O_________O___ hurdat_epa EP041982 15.5000 -116.800 HU 100 3 15.5000 -116.800 4 100 10 287
1982188N09262 1982 44 EP MM DANIEL 1982-07-12 03:00:00 TS 15.6139 -117.291 main 1119 1119 P_________P___ EP041982 15.6073 -117.293 HU 95 2 15.6337 -117.287 4 97 10 282
1982188N09262 1982 44 EP MM DANIEL 1982-07-12 06:00:00 TS 15.7122 -117.798 90 hurdat_epa main 1147 1147 O_________P___ hurdat_epa EP041982 15.7000 -117.800 HU 90 2 15.7490 -117.791 4 95 10 283
1982188N09262 1982 44 EP MM DANIEL 1982-07-12 09:00:00 TS 15.8423 -118.327 main 1177 1177 P_________P___ EP041982 15.8348 -118.328 HU 90 2 15.8648 -118.325 4 92 11 285
1982188N09262 1982 44 EP MM DANIEL 1982-07-12 12:00:00 TS 16.0000 -118.900 90 hurdat_epa main 1203 1203 O_________O___ hurdat_epa EP041982 16.0000 -118.900 HU 90 2 16.0000 -118.900 4 90 12 287
1982188N09262 1982 44 EP MM DANIEL 1982-07-12 15:00:00 TS 16.1930 -119.530 main 1223 1223 P_________P___ EP041982 16.1924 -119.528 HU 90 2 16.1948 -119.535 4 90 13 288
1982188N09262 1982 44 EP MM DANIEL 1982-07-12 18:00:00 TS 16.4019 -120.203 90 hurdat_epa main 1253 1253 O_________P___ hurdat_epa EP041982 16.4000 -120.200 HU 90 2 16.4076 -120.212 4 90 14 288
1982188N09262 1982 44 EP MM DANIEL 1982-07-12 21:00:00 TS 16.6154 -120.907 main 1287 1287 P_________P___ EP041982 16.6150 -120.907 HU 90 2 16.6165 -120.907 4 90 14 287
1982188N09262 1982 44 EP MM DANIEL 1982-07-13 00:00:00 TS 16.8000 -121.600 90 hurdat_epa main 1323 1323 O_________O___ hurdat_epa EP041982 16.8000 -121.600 HU 90 2 16.8000 -121.600 4 90 13 284
1982188N09262 1982 44 EP MM DANIEL 1982-07-13 03:00:00 TS 16.9200 -122.216 main 1362 1362 P_________P___ EP041982 16.9145 -122.200 HU 87 2 16.9362 -122.262 4 87 12 280
1982188N09262 1982 44 EP MM DANIEL 1982-07-13 06:00:00 TS 17.0110 -122.829 85 hurdat_epa main 1403 1403 O_________P___ hurdat_epa EP041982 17.0000 -122.800 HU 85 2 17.0442 -122.916 4 85 13 279
1982188N09262 1982 44 EP MM DANIEL 1982-07-13 09:00:00 TS 17.1131 -123.510 main 1454 1454 P_________P___ EP041982 17.1075 -123.492 HU 82 1 17.1300 -123.562 4 82 13 278
1982188N09262 1982 44 EP MM DANIEL 1982-07-13 12:00:00 TS 17.2000 -124.200 80 hurdat_epa main 1504 1504 O_________O___ hurdat_epa EP041982 17.2000 -124.200 HU 80 1 17.2000 -124.200 4 80 13 276
1982188N09262 1982 44 EP MM DANIEL 1982-07-13 15:00:00 TS 17.2568 -124.855 main 1542 1542 P_________P___ EP041982 17.2573 -124.865 HU 77 1 17.2554 -124.825 4 77 12 275
1982188N09262 1982 44 EP MM DANIEL 1982-07-13 18:00:00 TS 17.2997 -125.486 75 hurdat_epa main 1583 1583 O_________P___ hurdat_epa EP041982 17.3000 -125.500 HU 75 1 17.2988 -125.443 4 75 12 274
1982188N09262 1982 44 EP MM DANIEL 1982-07-13 21:00:00 TS 17.3480 -126.091 main 1626 1618 P_________P___ EP041982 17.3497 -126.100 HU 72 1 17.3428 -126.065 4 72 12 275
1982188N09262 1982 44 EP MM DANIEL 1982-07-14 00:00:00 TS 17.4000 -126.700 70 hurdat_epa main 1661 1661 O_________O___ hurdat_epa EP041982 17.4000 -126.700 HU 70 1 17.4000 -126.700 4 70 12 275
1982188N09262 1982 44 EP MM DANIEL 1982-07-14 03:00:00 TS 17.4474 -127.343 main 1706 1706 P_________P___ EP041982 17.4348 -127.335 HU 67 1 17.4853 -127.365 4 68 13 276
1982188N09262 1982 44 EP MM DANIEL 1982-07-14 06:00:00 TS 17.5211 -128.011 65 hurdat_epa main 1752 1752 O_________P___ hurdat_epa EP041982 17.5000 -128.000 HU 65 1 17.5845 -128.042 4 67 13 279
1982188N09262 1982 44 EP MM DANIEL 1982-07-14 09:00:00 TS 17.6547 -128.706 main 1792 1792 P_________P___ EP041982 17.6424 -128.700 HU 65 1 17.6915 -128.724 4 66 14 282
1982188N09262 1982 44 EP MM DANIEL 1982-07-14 12:00:00 TS 17.8000 -129.400 65 hurdat_epa main 1842 1842 O_________O___ hurdat_epa EP041982 17.8000 -129.400 HU 65 1 17.8000 -129.400 4 65 13 281
1982188N09262 1982 44 EP MM DANIEL 1982-07-14 15:00:00 TS 17.9102 -130.055 main 1892 1892 P_________P___ EP041982 17.9072 -130.058 HU 65 1 17.9193 -130.049 4 65 13 280
1982188N09262 1982 44 EP MM DANIEL 1982-07-14 18:00:00 TS 18.0090 -130.698 65 hurdat_epa main 1936 1936 O_________P___ hurdat_epa EP041982 18.0000 -130.700 HU 65 1 18.0362 -130.692 4 65 12 280
1982188N09262 1982 44 EP MM DANIEL 1982-07-14 21:00:00 TS 18.1198 -131.342 main 1980 1980 P_________P___ EP041982 18.1147 -131.342 HU 65 1 18.1349 -131.339 4 65 13 279
1982188N09262 1982 44 EP MM DANIEL 1982-07-15 00:00:00 TS 18.2000 -132.000 65 hurdat_epa main 2034 2034 O_________O___ hurdat_epa EP041982 18.2000 -132.000 HU 65 1 18.2000 -132.000 4 65 13 274
1982188N09262 1982 44 EP MM DANIEL 1982-07-15 03:00:00 TS 18.2184 -132.693 main 2096 2096 P_________P___ EP041982 18.2223 -132.693 HU 62 0 18.2066 -132.694 4 62 13 270
1982188N09262 1982 44 EP MM DANIEL 1982-07-15 06:00:00 TS 18.1949 -133.400 60 hurdat_epa main 2157 2157 O_________P___ hurdat_epa EP041982 18.2000 -133.400 TS 60 0 18.1796 -133.401 4 60 14 267
1982188N09262 1982 44 EP MM DANIEL 1982-07-15 09:00:00 TS 18.1469 -134.113 main 2183 2110 P_________P___ EP041982 18.1499 -134.115 TS 57 0 18.1378 -134.107 4 57 13 266
1982188N09262 1982 44 EP MM DANIEL 1982-07-15 12:00:00 TS 18.1000 -134.800 55 hurdat_epa main 2110 2047 O_________O___ hurdat_epa EP041982 18.1000 -134.800 TS 55 0 18.1000 -134.800 2 55 12 267
1982188N09262 1982 44 EP MM DANIEL 1982-07-15 15:00:00 TS 18.0920 -135.416 main 2047 1984 P_________P___ EP041982 18.0920 -135.400 TS 52 0 18.0919 -135.464 2 52 12 270
1982188N09262 1982 44 EP MM DANIEL 1982-07-15 18:00:00 TS 18.0978 -136.029 50 hurdat_epa main 1984 1910 O_________P___ hurdat_epa EP041982 18.1000 -136.000 TS 50 0 18.0913 -136.115 2 50 12 270
1982188N09262 1982 44 EP MM DANIEL 1982-07-15 21:00:00 TS 18.0987 -136.703 main 1910 1837 P_________P___ EP041982 18.0999 -136.685 TS 47 0 18.0951 -136.758 2 47 13 270
1982188N09262 1982 44 EP MM DANIEL 1982-07-16 00:00:00 TS 18.1000 -137.400 45 hurdat_epa main 1837 1764 O_________O___ hurdat_epa EP041982 18.1000 -137.400 TS 45 0 18.1000 -137.400 2 45 13 270
1982188N09262 1982 44 EP MM DANIEL 1982-07-16 03:00:00 TS 18.1057 -138.094 main 1764 1701 P_________P___ EP041982 18.0999 -138.115 TS 42 0 18.1232 -138.029 2 42 13 270
1982188N09262 1982 44 EP MM DANIEL 1982-07-16 06:00:00 TS 18.1108 -138.765 40 hurdat_epa main 1690 1638 O_________P___ hurdat_epa EP041982 18.1000 -138.800 TS 40 0 18.1433 -138.661 2 40 12 271
1982188N09262 1982 44 EP MM DANIEL 1982-07-16 09:00:00 TS 18.1268 -139.367 main 1628 1565 P_________P___ EP041982 18.1219 -139.385 TS 37 0 18.1418 -139.313 2 37 12 269
1982188N09262 1982 44 EP CP DANIEL 1982-07-16 12:00:00 TS 18.1000 -140.000 35 hurdat_epa main 1565 1493 O_________O___ hurdat_epa EP041982 18.1000 -140.000 TS 35 0 18.1000 -140.000 2 35 13 263
1982188N09262 1982 44 EP CP DANIEL 1982-07-16 15:00:00 TS 17.9745 -140.765 main 1483 1413 P_________P___ EP041982 17.9726 -140.778 TS 35 0 17.9803 -140.728 2 35 15 259
1982188N09262 1982 44 EP CP DANIEL 1982-07-16 18:00:00 TS 17.8051 -141.574 35 hurdat_epa main 1403 1332 O_________P___ hurdat_epa EP041982 17.8000 -141.600 TS 35 0 17.8216 -141.491 2 35 15 257
1982188N09262 1982 44 EP CP DANIEL 1982-07-16 21:00:00 TS 17.6441 -142.315 main 1334 1253 P_________P___ EP041982 17.6417 -142.320 TS 35 0 17.6520 -142.284 2 35 15 258
1982188N09262 1982 44 EP CP DANIEL 1982-07-17 00:00:00 TS 17.5000 -143.100 35 hurdat_epa main 1253 1163 O_________O___ hurdat_epa EP041982 17.5000 -143.100 TS 35 0 17.5000 -143.100 2 35 17 261
1982188N09262 1982 44 EP CP DANIEL 1982-07-17 03:00:00 TS 17.3907 -144.033 main 1163 1073 P_________P___ EP041982 17.3856 -144.108 TS 35 0 17.4117 -143.956 2 35 18 264
1982188N09262 1982 44 EP CP DANIEL 1982-07-17 06:00:00 TS 17.3086 -144.966 35 hurdat_epa main 1062 991 O_________P___ hurdat_epa EP041982 17.3000 -145.100 TS 35 0 17.3429 -144.829 2 35 17 265
1982188N09262 1982 44 EP CP DANIEL 1982-07-17 09:00:00 TS 17.2551 -145.762 main 980 923 P_________P___ EP041982 17.2493 -145.852 TS 35 0 17.2774 -145.687 2 35 15 266
1982188N09262 1982 44 EP CP DANIEL 1982-07-17 12:00:00 TS 17.2000 -146.480 35 hurdat_epa main 912 856 O_________O___ hurdat_epa EP041982 17.2000 -146.500 TS 35 0 17.2000 -146.500 2 35 13 264
1982188N09262 1982 44 EP CP DANIEL 1982-07-17 15:00:00 TS 17.1109 -147.159 main 846 790 P_________P___ EP041982 17.1146 -147.150 TS 37 0 17.0958 -147.221 2 35 13 261
1982188N09262 1982 44 EP CP DANIEL 1982-07-17 18:00:00 TS 16.9956 -147.819 40 hurdat_epa main 790 726 O_________P___ hurdat_epa EP041982 17.0000 -147.800 TS 40 0 16.9778 -147.894 2 35 13 259
1982188N09262 1982 44 EP CP DANIEL 1982-07-17 21:00:00 TS 16.8492 -148.517 main 730 669 P_________P___ EP041982 16.8500 -148.508 TS 37 0 16.8460 -148.546 2 35 14 257
1982188N09262 1982 44 EP CP DANIEL 1982-07-18 00:00:00 TS 16.7000 -149.200 35 hurdat_epa main 669 620 O_________O___ hurdat_epa EP041982 16.7000 -149.200 TS 35 0 16.7000 -149.200 2 35 13 259
1982188N09262 1982 44 EP CP DANIEL 1982-07-18 03:00:00 TS 16.6002 -149.814 main 620 573 P_________P___ EP041982 16.6144 -149.785 TS 35 0 16.5434 -149.917 2 35 12 259
1982188N09262 1982 44 EP CP DANIEL 1982-07-18 06:00:00 TS 16.4745 -150.447 35 hurdat_epa main 573 522 O_________P___ hurdat_epa EP041982 16.5000 -150.400 TS 35 0 16.3725 -150.637 2 35 14 255
1982188N09262 1982 44 EP CP DANIEL 1982-07-18 09:00:00 TS 16.2503 -151.211 main 522 493 P_________P___ EP041982 16.2654 -151.208 TS 35 0 16.1904 -151.339 2 35 15 252
1982188N09262 1982 44 EP CP DANIEL 1982-07-18 12:00:00 TS 16.0000 -151.960 35 hurdat_epa main 487 469 O_________O___ hurdat_epa EP041982 16.0000 -152.000 TS 35 0 16.0000 -152.000 2 35 14 251
1982188N09262 1982 44 EP CP DANIEL 1982-07-18 15:00:00 TS 15.7941 -152.564 main 467 455 P_________P___ EP041982 15.7920 -152.587 TS 35 0 15.8020 -152.589 2 35 12 250
1982188N09262 1982 44 EP CP DANIEL 1982-07-18 18:00:00 TS 15.5997 -153.107 35 hurdat_epa main 460 446 O_________P___ hurdat_epa EP041982 15.6000 -153.100 TS 35 0 15.5986 -153.137 2 35 11 249
1982188N09262 1982 44 EP CP DANIEL 1982-07-18 21:00:00 TS 15.3990 -153.650 main 445 440 P_________P___ EP041982 15.3998 -153.642 TS 35 0 15.3959 -153.667 2 35 11 249
1982188N09262 1982 44 EP CP DANIEL 1982-07-19 00:00:00 TS 15.2000 -154.200 35 hurdat_epa main 443 439 O_________O___ hurdat_epa EP041982 15.2000 -154.200 TS 35 0 15.2000 -154.200 2 35 12 250
1982188N09262 1982 44 EP CP DANIEL 1982-07-19 03:00:00 TS 14.9903 -154.803 main 446 444 P_________P___ EP041982 14.9925 -154.800 TS 35 0 14.9816 -154.813 2 52 12 251
1982188N09262 1982 44 EP CP DANIEL 1982-07-19 06:00:00 TS 14.7951 -155.405 35 hurdat_epa main 459 459 O_________P___ hurdat_epa EP041982 14.8000 -155.400 TS 35 0 14.7756 -155.426 2 69 12 252
1982188N09262 1982 44 EP CP DANIEL 1982-07-19 09:00:00 TS 14.6113 -155.978 main 482 482 P_________P___ EP041982 14.6124 -155.965 TS 35 0 14.6067 -156.000 2 86 11 254
1982188N09262 1982 44 EP CP DANIEL 1982-07-19 12:00:00 TS 14.5000 -156.500 35 hurdat_epa main 499 499 O_________O___ hurdat_epa EP041982 14.5000 -156.500 TS 35 0 14.5000 -156.500 2 103 10 264
1982188N09262 1982 44 EP CP DANIEL 1982-07-19 15:00:00 TS 14.5146 -156.996 main 511 507 P_________P___ EP041982 14.5201 -157.067 TS 32 -1 14.4929 -156.927 2 84 9 276
1982188N09262 1982 44 EP CP DANIEL 1982-07-19 18:00:00 TS 14.5894 -157.374 30 hurdat_epa main 514 514 O_________P___ hurdat_epa EP041982 14.6000 -157.500 TD 30 -1 14.5469 -157.271 2 66 6 284
1982188N09262 1982 44 EP CP DANIEL 1982-07-19 21:00:00 TS 14.6514 -157.577 main 511 511 P_________P___ EP041982 14.6573 -157.675 TD 30 -1 14.6275 -157.530 2 48 3 292
1982188N09262 1982 44 EP CP DANIEL 1982-07-20 00:00:00 TS 14.7000 -157.660 30 hurdat_epa main 515 515 O_________O___ hurdat_epa EP041982 14.7000 -157.700 TD 30 -1 14.7000 -157.700 1 30 1 291
1982188N09262 1982 44 EP CP DANIEL 1982-07-20 03:00:00 TS 14.7024 -157.712 main 515 515 P_________P___ EP041982 14.7075 -157.715 TD 30 -1 14.6898 -157.786 1 30 1 264
1982188N09262 1982 44 EP CP DANIEL 1982-07-20 06:00:00 TS 14.6939 -157.718 30 hurdat_epa main 515 515 O_________P___ hurdat_epa EP041982 14.7000 -157.700 TD 30 -1 14.6698 -157.790 1 30 0 0
1982188N09262 1982 44 EP CP DANIEL 1982-07-20 09:00:00 TS 14.6865 -157.707 main 515 515 P_________P___ EP041982 14.6775 -157.693 TD 30 -1 14.6649 -157.749 1 30 0 0
1982188N09262 1982 44 EP CP DANIEL 1982-07-20 12:00:00 TS 14.7200 -157.700 30 hurdat_epa main 515 505 O_________O___ hurdat_epa EP041982 14.7000 -157.700 TD 30 -1 14.7000 -157.700 1 30 2 342
1982188N09262 1982 44 EP CP DANIEL 1982-07-20 15:00:00 TS 14.8324 -157.749 main 505 490 P_________P___ EP041982 14.8275 -157.757 TD 30 -1 14.7947 -157.716 1 30 3 344
1982188N09262 1982 44 EP CP DANIEL 1982-07-20 18:00:00 TS 14.9865 -157.786 30 hurdat_epa main 490 480 O_________P___ hurdat_epa EP041982 15.0000 -157.800 TD 30 -1 14.9325 -157.730 1 30 3 355
1982188N09262 1982 44 EP CP DANIEL 1982-07-20 21:00:00 TS 15.1273 -157.764 main 480 455 P_________P___ EP041982 15.1350 -157.772 TD 30 -1 15.1040 -157.729 1 30 3 15
1982188N09262 1982 44 EP CP DANIEL 1982-07-21 00:00:00 TS 15.3000 -157.700 30 hurdat_epa main 455 430 O_________O___ hurdat_epa EP041982 15.3000 -157.700 TD 30 -1 15.3000 -157.700 1 30 4 20
1982188N09262 1982 44 EP CP DANIEL 1982-07-21 03:00:00 TS 15.5306 -157.613 main 430 396 P_________P___ EP041982 15.5425 -157.608 TD 27 -1 15.4831 -157.637 1 28 5 21
1982188N09262 1982 44 EP CP DANIEL 1982-07-21 06:00:00 TS 15.7780 -157.509 25 hurdat_epa main 396 371 O_________P___ hurdat_epa EP041982 15.8000 -157.500 TD 25 -1 15.6900 -157.545 1 27 5 23
1982188N09262 1982 44 EP CP DANIEL 1982-07-21 09:00:00 TS 15.9839 -157.406 main 371 346 P_________P___ EP041982 16.0000 -157.400 TD 25 -1 15.9269 -157.430 1 26 5 26
1982188N09262 1982 44 EP CP DANIEL 1982-07-21 12:00:00 TS 16.2000 -157.300 25 hurdat_epa main 346 321 O_________O___ hurdat_epa EP041982 16.2000 -157.300 TD 25 -1 16.2000 -157.300 1 25 5 23
1982188N09262 1982 44 EP CP DANIEL 1982-07-21 15:00:00 TS 16.4419 -157.204 main 321 287 P_________P___ EP041982 16.4125 -157.215 TD 25 -1 16.5019 -157.160 1 25 6 21
1982188N09262 1982 44 EP CP DANIEL 1982-07-21 18:00:00 TS 16.7480 -157.082 25 hurdat_epa main 287 238 O_________P___ hurdat_epa EP041982 16.7000 -157.100 TD 25 -1 16.8401 -157.008 1 25 8 23
1982188N09262 1982 44 EP CP DANIEL 1982-07-21 21:00:00 TS 17.1597 -156.890 main 228 179 P_________P___ EP041982 17.1351 -156.900 TD 25 -1 17.2082 -156.851 1 25 9 23
1982188N09262 1982 44 EP CP DANIEL 1982-07-22 00:00:00 TS 17.6000 -156.700 25 hurdat_epa main 179 146 O_________O___ hurdat_epa EP041982 17.6000 -156.700 TD 25 -1 17.6000 -156.700 1 25 9 20
1982188N09262 1982 44 EP CP DANIEL 1982-07-22 03:00:00 TS 17.9593 -156.586 main 138 107 P_________P___ EP041982 17.9424 -156.592 TD 25 -1 17.9768 -156.562 1 25 8 15
1982188N09262 1982 44 EP CP DANIEL 1982-07-22 06:00:00 TS 18.3357 -156.487 25 hurdat_epa main 107 62 O_________P___ hurdat_epa EP041982 18.3000 -156.500 TD 25 -1 18.3784 -156.433 1 25 9 16
1982188N09262 1982 44 EP CP DANIEL 1982-07-22 09:00:00 TS 18.7907 -156.342 main 53 30 P_________P___ EP041982 18.7700 -156.350 TD 25 -1 18.8158 -156.312 1 25 10 16
1982188N09262 1982 44 EP CP DANIEL 1982-07-22 12:00:00 TS 19.3000 -156.200 25 hurdat_epa main 30 0 O_________O___ hurdat_epa EP041982 19.3000 -156.200 TD 25 -1 19.3000 -156.200 1 25 11 13
1982188N09262 1982 44 EP CP DANIEL 1982-07-22 15:00:00 TS 19.8421 -156.090 main 10 10 P_________P___ EP041982 19.8475 -156.088 TD 25 -1 19.8355 -156.098 1 25 11 10
1982188N09262 1982 44 EP CP DANIEL 1982-07-22 18:00:00 TS 20.4000 -156.000 25 hurdat_epa main 24 O_________O___ hurdat_epa EP041982 20.4000 -156.000 TD 25 -1 20.4000 -156.000 1 25 11 8

IBTrACS Databaseについて

本データベースは、米国NOAAが公開する1842年以降の世界の熱帯低気圧のベストトラックデータアーカイブInternational Best Track Archive for Climate Stewardship (IBTrACS)を、ウェブで閲覧しやすい形式に変換したものです。

最終更新日:2021-11-26